Eglinton, United Kingdom
Current Conditions -  °F | °C
As of 5:50 AM on Friday 28 Nov 2014 (Local Time) from EGAE Reporting Station
Broken Clouds Broken Clouds  
Wind Chill: 41°   Ceiling: 2100
Heat Index: 45°   Visibility: 5mi
Dew Point: 43°   Wind: 7mph
Humidity: 93%   Direction: 120°ESE
Pressure: 29.59"   Gusts: 30mph
Location:  55.02°N, 7.18°W
Report Text: EGAE 280550Z 12006G26KT 8000 FEW015 BKN021 07/06 Q1002
Loading
Personal Weather Stations






























Interactive Weather Map New forecast layout! Learn more

10-Day Weather Forecast

Advertisements
Track Severe Weather on mobile